PWSweather.com
Personal Weather Stations
Station Observations
KMIEASTT1
Tawas Bay, East Tawas, MI 48730

Tawas BayEast Tawas, MI 48730

Lat: 44.28, Lon: -83.48

Elevation: 600

Station Type: Davis VantagePro

http://www.tawasbayweather.com

High Low Average
Temperature 31.0°F-0.6°C 14.3°F-9.8°C 26.5°F-3.1°C
Dew Point 26.4°F-3.1°C 10.1°F-12.2°C 20.8°F-6.2°C
Winds 14.0 mph 22.5 kmh 1.0 mph 1.6 kmh 7.0 mph SW11.3 kmh SW
Wind Gusts 17.0 mph27.4 kmh 4.0 mph6.4 kmh 11.0 mph17.7 kmh
Humidity 86% 70% 79%
Pressure 30.05 in1017.6 mb 29.94 in1013.9 mb -
Precipitation 0.00 in0.0 mm - -
Hour Temp Dew Point Humidity Winds Wind Gusts Pressure Precip Precip Rate Daily Precip Total
12:02 AM 28.7°F-1.8°C 22.4°F-5.3°C 77% 12.0 mph SW19.3 kmh SW 14.0 mph22.5 kmh 30.02 in1016.6 mb 0.00 in0.0 mm 0.00 in/hr0.0 mm/hr 0.00 in0.0 mm
12:16 AM 28.7°F-1.8°C 22.7°F-5.2°C 78% 12.0 mph WSW19.3 kmh WSW 15.0 mph24.1 kmh 30.01 in1016.3 mb 0.00 in0.0 mm 0.00 in/hr0.0 mm/hr 0.00 in0.0 mm
12:30 AM 28.7°F-1.8°C 23.0°F-5.0°C 79% 12.0 mph WSW19.3 kmh WSW 14.0 mph22.5 kmh 30.01 in1016.3 mb 0.00 in0.0 mm 0.00 in/hr0.0 mm/hr 0.00 in0.0 mm
12:45 AM 28.7°F-1.8°C 23.3°F-4.8°C 80% 12.0 mph SW19.3 kmh SW 16.0 mph25.7 kmh 30.01 in1016.3 mb 0.00 in0.0 mm 0.00 in/hr0.0 mm/hr 0.00 in0.0 mm
01:02 AM 28.4°F-2.0°C 23.3°F-4.8°C 81% 13.0 mph WSW20.9 kmh WSW 16.0 mph25.7 kmh 30.00 in1015.9 mb 0.00 in0.0 mm 0.00 in/hr0.0 mm/hr 0.00 in0.0 mm
01:16 AM 28.2°F-2.1°C 23.1°F-4.9°C 81% 12.0 mph SW19.3 kmh SW 16.0 mph25.7 kmh 30.01 in1016.3 mb 0.00 in0.0 mm 0.00 in/hr0.0 mm/hr 0.00 in0.0 mm
01:30 AM 28.0°F-2.2°C 23.2°F-4.9°C 82% 11.0 mph SW17.7 kmh SW 14.0 mph22.5 kmh 30.01 in1016.3 mb 0.00 in0.0 mm 0.00 in/hr0.0 mm/hr 0.00 in0.0 mm
01:46 AM 28.0°F-2.2°C 23.2°F-4.9°C 82% 13.0 mph SW20.9 kmh SW 16.0 mph25.7 kmh 30.01 in1016.3 mb 0.00 in0.0 mm 0.00 in/hr0.0 mm/hr 0.00 in0.0 mm
02:01 AM 28.2°F-2.1°C 23.4°F-4.8°C 82% 10.0 mph SW16.1 kmh SW 14.0 mph22.5 kmh 30.01 in1016.3 mb 0.00 in0.0 mm 0.00 in/hr0.0 mm/hr 0.00 in0.0 mm
02:16 AM 28.3°F-2.1°C 23.5°F-4.7°C 82% 9.0 mph SW14.5 kmh SW 14.0 mph22.5 kmh 30.01 in1016.3 mb 0.00 in0.0 mm 0.00 in/hr0.0 mm/hr 0.00 in0.0 mm
02:31 AM 28.7°F-1.8°C 23.3°F-4.8°C 80% 13.0 mph WSW20.9 kmh WSW 16.0 mph25.7 kmh 30.01 in1016.3 mb 0.00 in0.0 mm 0.00 in/hr0.0 mm/hr 0.00 in0.0 mm
03:01 AM 28.9°F-1.7°C 23.2°F-4.9°C 79% 9.0 mph WSW14.5 kmh WSW 17.0 mph27.4 kmh 30.00 in1015.9 mb 0.00 in0.0 mm 0.00 in/hr0.0 mm/hr 0.00 in0.0 mm
03:15 AM 28.9°F-1.7°C 23.2°F-4.9°C 79% 10.0 mph WSW16.1 kmh WSW 13.0 mph20.9 kmh 30.00 in1015.9 mb 0.00 in0.0 mm 0.00 in/hr0.0 mm/hr 0.00 in0.0 mm
03:30 AM 29.3°F-1.5°C 22.7°F-5.2°C 76% 5.0 mph W8.0 kmh W 17.0 mph27.4 kmh 30.00 in1015.9 mb 0.00 in0.0 mm 0.00 in/hr0.0 mm/hr 0.00 in0.0 mm
03:46 AM 29.3°F-1.5°C 22.7°F-5.2°C 76% 8.0 mph WSW12.9 kmh WSW 17.0 mph27.4 kmh 29.99 in1015.6 mb 0.00 in0.0 mm 0.00 in/hr0.0 mm/hr 0.00 in0.0 mm
04:02 AM 29.3°F-1.5°C 22.4°F-5.3°C 75% 13.0 mph WSW20.9 kmh WSW 17.0 mph27.4 kmh 29.99 in1015.6 mb 0.00 in0.0 mm 0.00 in/hr0.0 mm/hr 0.00 in0.0 mm
04:16 AM 29.4°F-1.4°C 22.2°F-5.4°C 74% 11.0 mph WSW17.7 kmh WSW 17.0 mph27.4 kmh 29.99 in1015.6 mb 0.00 in0.0 mm 0.00 in/hr0.0 mm/hr 0.00 in0.0 mm
04:31 AM 29.4°F-1.4°C 22.2°F-5.4°C 74% 14.0 mph WSW22.5 kmh WSW 14.0 mph22.5 kmh 29.99 in1015.6 mb 0.00 in0.0 mm 0.00 in/hr0.0 mm/hr 0.00 in0.0 mm
04:46 AM 29.5°F-1.4°C 22.3°F-5.4°C 74% 10.0 mph WSW16.1 kmh WSW 13.0 mph20.9 kmh 29.99 in1015.6 mb 0.00 in0.0 mm 0.00 in/hr0.0 mm/hr 0.00 in0.0 mm
05:02 AM 29.4°F-1.4°C 22.2°F-5.4°C 74% 10.0 mph SW16.1 kmh SW 12.0 mph19.3 kmh 29.99 in1015.6 mb 0.00 in0.0 mm 0.00 in/hr0.0 mm/hr 0.00 in0.0 mm
05:17 AM 29.6°F-1.3°C 22.0°F-5.6°C 73% 10.0 mph WSW16.1 kmh WSW 16.0 mph25.7 kmh 29.99 in1015.6 mb 0.00 in0.0 mm 0.00 in/hr0.0 mm/hr 0.00 in0.0 mm
05:30 AM 29.5°F-1.4°C 22.6°F-5.2°C 75% 8.0 mph WSW12.9 kmh WSW 11.0 mph17.7 kmh 29.99 in1015.6 mb 0.00 in0.0 mm 0.00 in/hr0.0 mm/hr 0.00 in0.0 mm
05:46 AM 29.6°F-1.3°C 22.7°F-5.2°C 75% 7.0 mph WSW11.3 kmh WSW 12.0 mph19.3 kmh 29.99 in1015.6 mb 0.00 in0.0 mm 0.00 in/hr0.0 mm/hr 0.00 in0.0 mm
06:01 AM 29.9°F-1.2°C 21.3°F-5.9°C 70% 6.0 mph W9.7 kmh W 12.0 mph19.3 kmh 29.99 in1015.6 mb 0.00 in0.0 mm 0.00 in/hr0.0 mm/hr 0.00 in0.0 mm
06:15 AM 29.4°F-1.4°C 22.5°F-5.3°C 75% 4.0 mph SW6.4 kmh SW 9.0 mph14.5 kmh 29.99 in1015.6 mb 0.00 in0.0 mm 0.00 in/hr0.0 mm/hr 0.00 in0.0 mm
06:31 AM 29.5°F-1.4°C 22.3°F-5.4°C 74% 8.0 mph WSW12.9 kmh WSW 9.0 mph14.5 kmh 29.99 in1015.6 mb 0.00 in0.0 mm 0.00 in/hr0.0 mm/hr 0.00 in0.0 mm
06:46 AM 29.7°F-1.3°C 23.1°F-4.9°C 76% 9.0 mph SW14.5 kmh SW 10.0 mph16.1 kmh 29.97 in1014.9 mb 0.00 in0.0 mm 0.00 in/hr0.0 mm/hr 0.00 in0.0 mm
07:02 AM 29.6°F-1.3°C 23.0°F-5.0°C 76% 8.0 mph SW12.9 kmh SW 10.0 mph16.1 kmh 29.96 in1014.6 mb 0.00 in0.0 mm 0.00 in/hr0.0 mm/hr 0.00 in0.0 mm
07:16 AM 29.7°F-1.3°C 23.1°F-4.9°C 76% 8.0 mph SW12.9 kmh SW 11.0 mph17.7 kmh 29.95 in1014.2 mb 0.00 in0.0 mm 0.00 in/hr0.0 mm/hr 0.00 in0.0 mm
07:31 AM 29.7°F-1.3°C 23.4°F-4.8°C 77% 11.0 mph SW17.7 kmh SW 12.0 mph19.3 kmh 29.95 in1014.2 mb 0.00 in0.0 mm 0.00 in/hr0.0 mm/hr 0.00 in0.0 mm
07:46 AM 29.8°F-1.2°C 22.9°F-5.1°C 75% 9.0 mph SW14.5 kmh SW 11.0 mph17.7 kmh 29.94 in1013.9 mb 0.00 in0.0 mm 0.00 in/hr0.0 mm/hr 0.00 in0.0 mm
08:02 AM 29.9°F-1.2°C 23.3°F-4.8°C 76% 5.0 mph SW8.0 kmh SW 11.0 mph17.7 kmh 29.95 in1014.2 mb 0.00 in0.0 mm 0.00 in/hr0.0 mm/hr 0.00 in0.0 mm
08:16 AM 29.7°F-1.3°C 23.4°F-4.8°C 77% 10.0 mph SW16.1 kmh SW 10.0 mph16.1 kmh 29.95 in1014.2 mb 0.00 in0.0 mm 0.00 in/hr0.0 mm/hr 0.00 in0.0 mm
08:31 AM 29.9°F-1.2°C 23.3°F-4.8°C 76% 10.0 mph SW16.1 kmh SW 10.0 mph16.1 kmh 29.96 in1014.6 mb 0.00 in0.0 mm 0.00 in/hr0.0 mm/hr 0.00 in0.0 mm
08:47 AM 30.0°F-1.1°C 23.4°F-4.8°C 76% 8.0 mph SW12.9 kmh SW 10.0 mph16.1 kmh 29.96 in1014.6 mb 0.00 in0.0 mm 0.00 in/hr0.0 mm/hr 0.00 in0.0 mm
09:02 AM 30.2°F-1.0°C 22.9°F-5.1°C 74% 7.0 mph SW11.3 kmh SW 10.0 mph16.1 kmh 29.96 in1014.6 mb 0.00 in0.0 mm 0.00 in/hr0.0 mm/hr 0.00 in0.0 mm
09:15 AM 30.2°F-1.0°C 23.6°F-4.7°C 76% 6.0 mph WSW9.7 kmh WSW 11.0 mph17.7 kmh 29.97 in1014.9 mb 0.00 in0.0 mm 0.00 in/hr0.0 mm/hr 0.00 in0.0 mm
09:32 AM 30.4°F-0.9°C 23.1°F-4.9°C 74% 8.0 mph SW12.9 kmh SW 11.0 mph17.7 kmh 29.97 in1014.9 mb 0.00 in0.0 mm 0.00 in/hr0.0 mm/hr 0.00 in0.0 mm
09:46 AM 30.3°F-0.9°C 23.7°F-4.6°C 76% 6.0 mph WSW9.7 kmh WSW 10.0 mph16.1 kmh 29.97 in1014.9 mb 0.00 in0.0 mm 0.00 in/hr0.0 mm/hr 0.00 in0.0 mm
10:02 AM 30.5°F-0.8°C 23.9°F-4.5°C 76% 8.0 mph SW12.9 kmh SW 10.0 mph16.1 kmh 29.96 in1014.6 mb 0.00 in0.0 mm 0.00 in/hr0.0 mm/hr 0.00 in0.0 mm
10:16 AM 30.6°F-0.8°C 23.6°F-4.7°C 75% 7.0 mph SW11.3 kmh SW 10.0 mph16.1 kmh 29.96 in1014.6 mb 0.00 in0.0 mm 0.00 in/hr0.0 mm/hr 0.00 in0.0 mm
10:31 AM 30.8°F-0.7°C 23.8°F-4.6°C 75% 8.0 mph SW12.9 kmh SW 9.0 mph14.5 kmh 29.96 in1014.6 mb 0.00 in0.0 mm 0.00 in/hr0.0 mm/hr 0.00 in0.0 mm
10:46 AM 31.0°F-0.6°C 24.0°F-4.4°C 75% 9.0 mph WSW14.5 kmh WSW 10.0 mph16.1 kmh 29.96 in1014.6 mb 0.00 in0.0 mm 0.00 in/hr0.0 mm/hr 0.00 in0.0 mm
11:02 AM 31.0°F-0.6°C 24.0°F-4.4°C 75% 7.0 mph SW11.3 kmh SW 14.0 mph22.5 kmh 29.96 in1014.6 mb 0.00 in0.0 mm 0.00 in/hr0.0 mm/hr 0.00 in0.0 mm
11:16 AM 31.0°F-0.6°C 24.3°F-4.3°C 76% 8.0 mph WSW12.9 kmh WSW 11.0 mph17.7 kmh 29.96 in1014.6 mb 0.00 in0.0 mm 0.00 in/hr0.0 mm/hr 0.00 in0.0 mm
11:31 AM 31.0°F-0.6°C 24.7°F-4.1°C 77% 10.0 mph SW16.1 kmh SW 10.0 mph16.1 kmh 29.96 in1014.6 mb 0.00 in0.0 mm 0.00 in/hr0.0 mm/hr 0.00 in0.0 mm
11:46 AM 30.8°F-0.7°C 24.8°F-4.0°C 78% 6.0 mph SW9.7 kmh SW 8.0 mph12.9 kmh 29.96 in1014.6 mb 0.00 in0.0 mm 0.00 in/hr0.0 mm/hr 0.00 in0.0 mm
12:02 PM 30.6°F-0.8°C 26.4°F-3.1°C 84% 4.0 mph SW6.4 kmh SW 7.0 mph11.3 kmh 29.96 in1014.6 mb 0.00 in0.0 mm 0.00 in/hr0.0 mm/hr 0.00 in0.0 mm
12:16 PM 30.4°F-0.9°C 26.4°F-3.1°C 85% 5.0 mph SW8.0 kmh SW 5.0 mph8.0 kmh 29.96 in1014.6 mb 0.00 in0.0 mm 0.00 in/hr0.0 mm/hr 0.00 in0.0 mm
12:32 PM 30.0°F-1.1°C 24.3°F-4.3°C 79% 5.0 mph NW8.0 kmh NW 7.0 mph11.3 kmh 29.97 in1014.9 mb 0.00 in0.0 mm 0.00 in/hr0.0 mm/hr 0.00 in0.0 mm
12:46 PM 27.0°F-2.8°C 22.3°F-5.4°C 82% 2.0 mph N3.2 kmh N 8.0 mph12.9 kmh 29.98 in1015.2 mb 0.00 in0.0 mm 0.00 in/hr0.0 mm/hr 0.00 in0.0 mm
01:02 PM 24.9°F-3.9°C 20.2°F-6.6°C 82% 2.0 mph WNW3.2 kmh WNW 7.0 mph11.3 kmh 29.97 in1014.9 mb 0.00 in0.0 mm 0.00 in/hr0.0 mm/hr 0.00 in0.0 mm
01:15 PM 24.5°F-4.2°C 20.1°F-6.6°C 83% 2.0 mph N3.2 kmh N 6.0 mph9.7 kmh 29.97 in1014.9 mb 0.00 in0.0 mm 0.00 in/hr0.0 mm/hr 0.00 in0.0 mm
01:31 PM 24.3°F-4.3°C 20.2°F-6.6°C 84% 4.0 mph N6.4 kmh N 4.0 mph6.4 kmh 29.97 in1014.9 mb 0.00 in0.0 mm 0.00 in/hr0.0 mm/hr 0.00 in0.0 mm
01:46 PM 23.9°F-4.5°C 19.2°F-7.1°C 82% 2.0 mph N3.2 kmh N 8.0 mph12.9 kmh 29.97 in1014.9 mb 0.00 in0.0 mm 0.00 in/hr0.0 mm/hr 0.00 in0.0 mm
02:02 PM 23.3°F-4.8°C 18.6°F-7.4°C 82% 2.0 mph NE3.2 kmh NE 8.0 mph12.9 kmh 29.97 in1014.9 mb 0.00 in0.0 mm 0.00 in/hr0.0 mm/hr 0.00 in0.0 mm
02:17 PM 23.0°F-5.0°C 19.2°F-7.1°C 85% 2.0 mph NE3.2 kmh NE 8.0 mph12.9 kmh 29.97 in1014.9 mb 0.00 in0.0 mm 0.00 in/hr0.0 mm/hr 0.00 in0.0 mm
02:31 PM 22.0°F-5.6°C 18.5°F-7.5°C 86% 3.0 mph NW4.8 kmh NW 6.0 mph9.7 kmh 29.97 in1014.9 mb 0.00 in0.0 mm 0.00 in/hr0.0 mm/hr 0.00 in0.0 mm
02:46 PM 21.8°F-5.7°C 17.4°F-8.1°C 83% 8.0 mph NNE12.9 kmh NNE 10.0 mph16.1 kmh 29.97 in1014.9 mb 0.01 in0.3 mm 0.04 in/hr1.0 mm/hr 0.01 in0.3 mm
03:02 PM 21.7°F-5.7°C 16.5°F-8.6°C 80% 3.0 mph N4.8 kmh N 9.0 mph14.5 kmh 29.98 in1015.2 mb 0.01 in0.3 mm 0.00 in/hr0.0 mm/hr 0.01 in0.3 mm
03:16 PM 21.1°F-6.1°C 16.5°F-8.6°C 82% 1.0 mph NW1.6 kmh NW 8.0 mph12.9 kmh 29.99 in1015.6 mb 0.01 in0.3 mm 0.00 in/hr0.0 mm/hr 0.01 in0.3 mm
03:31 PM 21.0°F-6.1°C 17.2°F-8.2°C 85% 5.0 mph NNW8.0 kmh NNW 8.0 mph12.9 kmh 29.99 in1015.6 mb 0.01 in0.3 mm 0.00 in/hr0.0 mm/hr 0.01 in0.3 mm
03:46 PM 20.6°F-6.3°C 16.8°F-8.4°C 85% 1.0 mph N1.6 kmh N 7.0 mph11.3 kmh 30.00 in1015.9 mb 0.01 in0.3 mm 0.00 in/hr0.0 mm/hr 0.01 in0.3 mm
04:02 PM 19.5°F-6.9°C 15.2°F-9.3°C 83% 3.0 mph N4.8 kmh N 11.0 mph17.7 kmh 30.00 in1015.9 mb 0.00 in0.0 mm 0.00 in/hr0.0 mm/hr 0.01 in0.3 mm
04:16 PM 19.0°F-7.2°C 14.4°F-9.8°C 82% 6.0 mph NW9.7 kmh NW 7.0 mph11.3 kmh 30.00 in1015.9 mb 0.00 in0.0 mm 0.00 in/hr0.0 mm/hr 0.01 in0.3 mm
04:32 PM 18.1°F-7.7°C 13.5°F-10.3°C 82% 3.0 mph SE4.8 kmh SE 13.0 mph20.9 kmh 30.01 in1016.3 mb 0.00 in0.0 mm 0.00 in/hr0.0 mm/hr 0.01 in0.3 mm
04:46 PM 17.1°F-8.3°C 12.6°F-10.8°C 82% 2.0 mph NNW3.2 kmh NNW 11.0 mph17.7 kmh 30.02 in1016.6 mb 0.00 in0.0 mm 0.00 in/hr0.0 mm/hr 0.01 in0.3 mm
05:02 PM 16.7°F-8.5°C 12.5°F-10.8°C 83% 3.0 mph NW4.8 kmh NW 9.0 mph14.5 kmh 30.02 in1016.6 mb 0.00 in0.0 mm 0.00 in/hr0.0 mm/hr 0.01 in0.3 mm
05:17 PM 16.4°F-8.7°C 12.2°F-11.0°C 83% 3.0 mph NE4.8 kmh NE 8.0 mph12.9 kmh 30.02 in1016.6 mb 0.06 in1.5 mm 0.24 in/hr6.1 mm/hr 0.07 in1.8 mm
05:31 PM 15.9°F-8.9°C 11.7°F-11.3°C 83% 2.0 mph E3.2 kmh E 11.0 mph17.7 kmh 30.02 in1016.6 mb 0.06 in1.5 mm 0.00 in/hr0.0 mm/hr 0.07 in1.8 mm
05:46 PM 15.3°F-9.3°C 10.8°F-11.8°C 82% 2.0 mph NW3.2 kmh NW 9.0 mph14.5 kmh 30.03 in1016.9 mb 0.06 in1.5 mm 0.00 in/hr0.0 mm/hr 0.07 in1.8 mm
06:01 PM 15.1°F-9.4°C 10.9°F-11.7°C 83% 7.0 mph NW11.3 kmh NW 12.0 mph19.3 kmh 30.03 in1016.9 mb 0.06 in1.5 mm 0.00 in/hr0.0 mm/hr 0.07 in1.8 mm
06:17 PM 14.6°F-9.7°C 10.7°F-11.8°C 84% 5.0 mph NNE8.0 kmh NNE 7.0 mph11.3 kmh 30.04 in1017.3 mb 0.06 in1.5 mm 0.00 in/hr0.0 mm/hr 0.07 in1.8 mm
06:31 PM 14.3°F-9.8°C 10.1°F-12.2°C 83% 4.0 mph N6.4 kmh N 8.0 mph12.9 kmh 30.05 in1017.6 mb 0.00 in0.0 mm 0.00 in/hr0.0 mm/hr 0.07 in1.8 mm
06:46 PM 13.9°F-10.1°C 9.4°F-12.6°C 82% 6.0 mph NNW9.7 kmh NNW 12.0 mph19.3 kmh 30.05 in1017.6 mb 0.00 in0.0 mm 0.00 in/hr0.0 mm/hr 0.07 in1.8 mm
07:02 PM 13.3°F-10.4°C 8.8°F-12.9°C 82% 3.0 mph N4.8 kmh N 10.0 mph16.1 kmh 30.06 in1017.9 mb 0.00 in0.0 mm 0.00 in/hr0.0 mm/hr 0.07 in1.8 mm
07:16 PM 13.5°F-10.3°C 9.0°F-12.8°C 82% 6.0 mph NNW9.7 kmh NNW 9.0 mph14.5 kmh 30.06 in1017.9 mb 0.00 in0.0 mm 0.00 in/hr0.0 mm/hr 0.07 in1.8 mm
07:31 PM 13.4°F-10.3°C 9.2°F-12.7°C 83% 6.0 mph NNE9.7 kmh NNE 12.0 mph19.3 kmh 30.06 in1017.9 mb 0.00 in0.0 mm 0.00 in/hr0.0 mm/hr 0.07 in1.8 mm
07:46 PM 13.0°F-10.6°C 9.1°F-12.7°C 84% 6.0 mph NNW9.7 kmh NNW 11.0 mph17.7 kmh 30.06 in1017.9 mb 0.00 in0.0 mm 0.00 in/hr0.0 mm/hr 0.07 in1.8 mm
08:01 PM 12.8°F-10.7°C 8.6°F-13.0°C 83% 1.0 mph N1.6 kmh N 11.0 mph17.7 kmh 30.07 in1018.3 mb 0.00 in0.0 mm 0.00 in/hr0.0 mm/hr 0.07 in1.8 mm
08:15 PM 12.8°F-10.7°C 8.6°F-13.0°C 83% 3.0 mph NNW4.8 kmh NNW 11.0 mph17.7 kmh 30.07 in1018.3 mb 0.00 in0.0 mm 0.00 in/hr0.0 mm/hr 0.07 in1.8 mm
08:31 PM 12.5°F-10.8°C 8.6°F-13.0°C 84% 3.0 mph NW4.8 kmh NW 11.0 mph17.7 kmh 30.07 in1018.3 mb 0.00 in0.0 mm 0.00 in/hr0.0 mm/hr 0.07 in1.8 mm
08:46 PM 12.4°F-10.9°C 8.8°F-12.9°C 85% 5.0 mph NNW8.0 kmh NNW 9.0 mph14.5 kmh 30.07 in1018.3 mb 0.00 in0.0 mm 0.00 in/hr0.0 mm/hr 0.07 in1.8 mm
09:02 PM 12.4°F-10.9°C 9.0°F-12.8°C 86% 3.0 mph N4.8 kmh N 9.0 mph14.5 kmh 30.07 in1018.3 mb 0.00 in0.0 mm 0.00 in/hr0.0 mm/hr 0.07 in1.8 mm
09:16 PM 12.3°F-10.9°C 8.7°F-12.9°C 85% 4.0 mph NW6.4 kmh NW 10.0 mph16.1 kmh 30.08 in1018.6 mb 0.00 in0.0 mm 0.00 in/hr0.0 mm/hr 0.07 in1.8 mm
09:31 PM 12.3°F-10.9°C 8.1°F-13.3°C 83% 7.0 mph ENE11.3 kmh ENE 10.0 mph16.1 kmh 30.08 in1018.6 mb 0.00 in0.0 mm 0.00 in/hr0.0 mm/hr 0.07 in1.8 mm
09:46 PM 12.3°F-10.9°C 8.1°F-13.3°C 83% 6.0 mph NNW9.7 kmh NNW 10.0 mph16.1 kmh 30.09 in1019.0 mb 0.00 in0.0 mm 0.00 in/hr0.0 mm/hr 0.07 in1.8 mm
10:01 PM 12.4°F-10.9°C 8.2°F-13.2°C 83% 2.0 mph N3.2 kmh N 14.0 mph22.5 kmh 30.08 in1018.6 mb 0.00 in0.0 mm 0.00 in/hr0.0 mm/hr 0.07 in1.8 mm
10:16 PM 12.7°F-10.7°C 7.7°F-13.5°C 80% 3.0 mph NNW4.8 kmh NNW 9.0 mph14.5 kmh 30.09 in1019.0 mb 0.00 in0.0 mm 0.00 in/hr0.0 mm/hr 0.07 in1.8 mm
10:31 PM 13.0°F-10.6°C 7.4°F-13.7°C 78% 1.0 mph NNE1.6 kmh NNE 9.0 mph14.5 kmh 30.08 in1018.6 mb 0.00 in0.0 mm 0.00 in/hr0.0 mm/hr 0.07 in1.8 mm
10:46 PM 13.1°F-10.5°C 7.5°F-13.6°C 78% 3.0 mph NNW4.8 kmh NNW 6.0 mph9.7 kmh 30.08 in1018.6 mb 0.00 in0.0 mm 0.00 in/hr0.0 mm/hr 0.07 in1.8 mm
11:02 PM 13.2°F-10.4°C 6.8°F-14.0°C 75% 2.0 mph NW3.2 kmh NW 9.0 mph14.5 kmh 30.09 in1019.0 mb 0.00 in0.0 mm 0.00 in/hr0.0 mm/hr 0.07 in1.8 mm
11:16 PM 13.2°F-10.4°C 6.5°F-14.2°C 74% 8.0 mph NNW12.9 kmh NNW 8.0 mph12.9 kmh 30.09 in1019.0 mb 0.00 in0.0 mm 0.00 in/hr0.0 mm/hr 0.07 in1.8 mm
11:30 PM 13.1°F-10.5°C 6.4°F-14.2°C 74% 3.0 mph NNW4.8 kmh NNW 8.0 mph12.9 kmh 30.09 in1019.0 mb 0.00 in0.0 mm 0.00 in/hr0.0 mm/hr 0.07 in1.8 mm
11:46 PM 13.0°F-10.6°C 6.3°F-14.3°C 74% 9.0 mph NW14.5 kmh NW 11.0 mph17.7 kmh 30.09 in1019.0 mb 0.00 in0.0 mm 0.00 in/hr0.0 mm/hr 0.07 in1.8 mm